Time;durP1;ratioP1;P1;durP2;ratioP2;P2;SDS_P1;SDS_P2;PMS_P1;PMS_P2;Temp;Humidity;BMP_temperature;BMP_pressure;BME280_temperature;BME280_humidity;BME280_pressure;Samples;Min_cycle;Max_cycle;Signal;HPM_P1;HPM_P2
2022/05/24 00:02:16;;;;;;;3.60;2.08;;;23.80;48.20;;;;;;5074973;28;20021;-79
2022/05/24 00:04:42;;;;;;;4.47;2.60;;;23.90;48.50;;;;;;5057840;28;20079;-77
2022/05/24 00:07:08;;;;;;;3.80;2.30;;;23.90;48.80;;;;;;5074683;28;20033;-80
2022/05/24 00:09:33;;;;;;;3.60;2.28;;;24.00;48.90;;;;;;5048649;28;20025;-76
2022/05/24 00:11:59;;;;;;;4.88;2.35;;;24.00;49.10;;;;;;5074571;28;20029;-77
2022/05/24 00:17:09;;;;;;;4.13;2.45;;;24.10;48.90;;;;;;5075282;28;20042;-76
2022/05/24 00:19:35;;;;;;;3.88;2.25;;;24.20;48.70;;;;;;5057129;28;20040;-76
2022/05/24 00:22:01;;;;;;;3.35;2.00;;;24.30;48.60;;;;;;5073778;28;20021;-78
2022/05/24 00:24:27;;;;;;;4.57;2.40;;;24.40;48.90;;;;;;5056196;28;20124;-77
2022/05/24 00:26:53;;;;;;;5.28;2.40;;;24.20;48.70;;;;;;5057253;28;20024;-79
2022/05/24 00:29:19;;;;;;;5.35;2.08;;;24.20;48.70;;;;;;5057043;28;20036;-78
2022/05/24 00:31:45;;;;;;;5.85;2.35;;;24.30;48.50;;;;;;5056664;28;20035;-77
2022/05/24 00:34:11;;;;;;;3.70;2.10;;;24.30;48.40;;;;;;5074253;28;20024;-79
2022/05/24 00:36:36;;;;;;;3.38;2.20;;;24.20;48.30;;;;;;5055974;28;20024;-76
2022/05/24 00:39:03;;;;;;;4.38;2.10;;;24.10;48.30;;;;;;5057220;28;20090;-76
2022/05/24 00:42:02;;;;;;;3.42;2.22;;;24.10;48.60;;;;;;5072538;28;20028;-76
2022/05/24 00:44:33;;;;;;;6.03;2.33;;;24.00;48.60;;;;;;5056650;28;20067;-75
2022/05/24 00:47:01;;;;;;;;;;;24.10;48.70;;;;;;5054415;28;20024;-76
2022/05/24 00:49:44;;;;;;;4.50;2.53;;;24.10;48.50;;;;;;5057122;28;20419;-80
2022/05/24 00:52:17;;;;;;;6.60;2.33;;;24.10;48.40;;;;;;5071201;28;20313;-76
2022/05/24 00:54:44;;;;;;;6.15;2.40;;;23.70;49.30;;;;;;5064704;28;20033;-76
2022/05/24 00:57:25;;;;;;;3.58;2.05;;;23.60;49.30;;;;;;5075976;28;20024;-79
2022/05/24 01:00:16;;;;;;;5.50;2.38;;;22.20;49.70;;;;;;5075669;28;20067;-77
2022/05/24 01:02:43;;;;;;;5.38;2.40;;;21.50;51.20;;;;;;5062033;28;20144;-77
2022/05/24 01:05:13;;;;;;;6.30;2.72;;;22.10;50.60;;;;;;5075620;28;20028;-76
2022/05/24 01:07:38;;;;;;;3.28;2.22;;;22.60;50.10;;;;;;5075307;28;20429;-77
2022/05/24 01:10:14;;;;;;;5.20;2.40;;;22.90;49.20;;;;;;5056458;28;20025;-76
2022/05/24 01:12:42;;;;;;;4.57;2.35;;;23.20;48.90;;;;;;5056800;28;20498;-75
2022/05/24 01:15:09;;;;;;;3.80;2.30;;;23.40;48.50;;;;;;5057014;28;20532;-76
2022/05/24 01:17:37;;;;;;;4.32;2.30;;;23.40;48.80;;;;;;5073536;28;20446;-76
2022/05/24 01:20:04;;;;;;;6.13;2.58;;;23.40;48.50;;;;;;5074058;28;20043;-76
2022/05/24 01:22:39;;;;;;;3.30;2.22;;;23.40;48.50;;;;;;5055879;28;20071;-77
2022/05/24 01:25:18;;;;;;;6.35;2.70;;;23.60;48.60;;;;;;5055567;28;20119;-76
2022/05/24 01:27:44;;;;;;;5.43;2.40;;;23.70;48.10;;;;;;5048846;28;20571;-76
2022/05/24 01:30:11;;;;;;;4.10;2.50;;;23.80;48.30;;;;;;5044369;28;20029;-76
2022/05/24 01:38:12;;;;;;;5.13;2.38;;;23.70;48.20;;;;;;5073707;28;20055;-76
2022/05/24 01:40:39;;;;;;;4.38;2.40;;;23.60;48.40;;;;;;5055554;28;20470;-76
2022/05/24 01:43:06;;;;;;;5.30;2.70;;;23.70;48.50;;;;;;5042406;28;20029;-75
2022/05/24 01:45:39;;;;;;;4.22;2.53;;;23.80;48.10;;;;;;5055143;28;20036;-77
2022/05/24 01:48:12;;;;;;;3.90;2.58;;;23.90;48.30;;;;;;5073440;28;20036;-76
2022/05/24 01:50:42;;;;;;;3.95;2.70;;;23.90;48.40;;;;;;5055838;28;20489;-81
2022/05/24 01:53:24;;;;;;;4.07;2.58;;;23.90;48.20;;;;;;5056190;28;20025;-76
2022/05/24 01:55:53;;;;;;;5.55;2.70;;;23.90;47.90;;;;;;5046066;28;20425;-77
2022/05/24 01:58:22;;;;;;;5.05;2.75;;;23.90;48.20;;;;;;5042900;28;20032;-76
2022/05/24 02:00:53;;;;;;;5.85;2.70;;;23.90;48.30;;;;;;5056391;28;20475;-76
2022/05/24 02:03:19;;;;;;;4.32;2.55;;;23.80;48.10;;;;;;5073813;28;20032;-76
2022/05/24 02:05:46;;;;;;;3.85;2.55;;;23.80;48.20;;;;;;5073477;28;20044;-79
2022/05/24 02:08:12;;;;;;;4.13;2.58;;;23.80;48.40;;;;;;5055522;28;20425;-76
2022/05/24 02:10:51;;;;;;;5.78;2.70;;;23.90;48.70;;;;;;5073517;28;20071;-76
2022/05/24 02:13:33;;;;;;;5.03;2.45;;;23.80;47.90;;;;;;5072879;28;20032;-76
2022/05/24 02:16:03;;;;;;;5.10;2.70;;;23.80;48.10;;;;;;5056829;28;20027;-75
2022/05/24 02:18:30;;;;;;;4.53;2.60;;;23.40;49.00;;;;;;5054115;28;20435;-77
2022/05/24 02:20:56;;;;;;;4.30;2.65;;;23.50;48.90;;;;;;5054523;28;20544;-75
2022/05/24 02:23:22;;;;;;;4.50;2.55;;;23.60;49.00;;;;;;5070615;28;20036;-78
2022/05/24 02:25:54;;;;;;;4.00;2.58;;;23.70;48.60;;;;;;5054878;28;20029;-77
2022/05/24 02:28:23;;;;;;;7.07;2.88;;;23.70;49.00;;;;;;5072770;28;20032;-79
2022/05/24 02:30:52;;;;;;;4.43;2.70;;;23.70;49.40;;;;;;5072635;28;20029;-76
2022/05/24 02:33:20;;;;;;;5.38;3.08;;;23.70;48.90;;;;;;5053913;28;20028;-75
2022/05/24 02:35:46;;;;;;;4.40;2.90;;;23.80;49.10;;;;;;5071806;28;20115;-76
2022/05/24 02:38:12;;;;;;;4.85;2.70;;;23.90;48.80;;;;;;5072433;28;20170;-75
2022/05/24 02:43:23;;;;;;;4.20;2.60;;;24.00;48.70;;;;;;5072845;28;20399;-75
2022/05/24 02:45:49;;;;;;;4.75;2.80;;;23.90;48.70;;;;;;5051393;28;20052;-76
2022/05/24 02:48:14;;;;;;;5.30;2.80;;;23.90;48.90;;;;;;5071853;28;20060;-77
2022/05/24 02:50:40;;;;;;;4.00;2.60;;;23.90;49.20;;;;;;5054832;28;20063;-77
2022/05/24 02:53:06;;;;;;;4.22;2.50;;;23.80;49.00;;;;;;5055145;28;20448;-85
2022/05/24 02:55:32;;;;;;;4.90;2.65;;;23.70;49.60;;;;;;5041758;28;20028;-76
2022/05/24 02:57:59;;;;;;;5.93;2.95;;;23.70;49.30;;;;;;5056281;28;20112;-76
2022/05/24 03:00:25;;;;;;;4.90;2.92;;;23.60;49.40;;;;;;5071661;28;20108;-76
2022/05/24 03:02:52;;;;;;;5.03;2.63;;;23.60;49.30;;;;;;5071532;28;20463;-75
2022/05/24 03:05:18;;;;;;;3.90;2.58;;;23.60;49.30;;;;;;5053582;28;20027;-76
2022/05/24 03:10:32;;;;;;;5.50;2.85;;;23.70;49.50;;;;;;5070274;28;20106;-76
2022/05/24 03:15:44;;;;;;;4.10;2.72;;;23.70;49.40;;;;;;5071742;28;20395;-75
2022/05/24 03:18:14;;;;;;;4.20;2.88;;;23.70;50.00;;;;;;5071206;28;20490;-76
2022/05/24 03:20:41;;;;;;;4.45;2.70;;;23.80;49.30;;;;;;5052572;28;20069;-75
2022/05/24 03:23:07;;;;;;;4.40;3.10;;;23.50;49.40;;;;;;5053760;28;20027;-77
2022/05/24 03:25:34;;;;;;;4.05;2.63;;;22.70;50.90;;;;;;5072103;28;20036;-76
2022/05/24 03:28:01;;;;;;;4.00;2.72;;;22.90;50.60;;;;;;5053966;28;20028;-75
2022/05/24 03:30:27;;;;;;;6.57;2.58;;;23.20;50.20;;;;;;5052894;28;20550;-76
2022/05/24 03:32:53;;;;;;;3.90;2.85;;;23.10;50.10;;;;;;5042592;28;20074;-75
2022/05/24 03:35:20;;;;;;;4.60;3.05;;;22.40;52.10;;;;;;5070601;28;20036;-76
2022/05/24 03:37:46;;;;;;;5.00;3.13;;;22.30;52.30;;;;;;5069024;28;20097;-76
2022/05/24 03:40:12;;;;;;;6.10;3.17;;;22.50;52.90;;;;;;5069642;28;20036;-75
2022/05/24 03:42:38;;;;;;;5.63;2.95;;;22.80;52.50;;;;;;5072446;28;20016;-77
2022/05/24 03:45:06;;;;;;;7.20;3.33;;;23.10;51.50;;;;;;5054015;28;20029;-75
2022/05/24 03:47:32;;;;;;;6.15;2.90;;;23.10;52.30;;;;;;5071334;28;20020;-76
2022/05/24 03:49:58;;;;;;;5.13;3.30;;;22.60;53.10;;;;;;5052974;28;20025;-77
2022/05/24 03:52:24;;;;;;;4.30;3.05;;;22.40;53.70;;;;;;5036404;28;20755;-74
2022/05/24 03:54:49;;;;;;;4.78;2.90;;;22.30;53.60;;;;;;5053624;28;20536;-76
2022/05/24 04:00:00;;;;;;;5.38;3.00;;;22.20;54.70;;;;;;5071815;28;20071;-84
2022/05/24 04:02:26;;;;;;;5.03;3.08;;;22.20;55.00;;;;;;5052180;28;20024;-80
2022/05/24 04:04:51;;;;;;;5.13;3.20;;;21.90;53.60;;;;;;5053056;28;20052;-79
2022/05/24 04:07:17;;;;;;;4.57;3.10;;;22.00;54.30;;;;;;5054195;28;20024;-82
2022/05/24 04:09:43;;;;;;;5.78;3.90;;;22.40;53.80;;;;;;5053530;28;20051;-75
2022/05/24 04:12:09;;;;;;;5.10;3.72;;;22.70;52.80;;;;;;5054170;28;20371;-75
2022/05/24 04:14:35;;;;;;;6.13;3.70;;;23.00;53.70;;;;;;5070780;28;20162;-74
2022/05/24 04:17:01;;;;;;;5.57;3.78;;;23.10;53.00;;;;;;5070144;28;20099;-76
2022/05/24 04:19:27;;;;;;;5.03;3.65;;;23.10;53.70;;;;;;5071075;28;20063;-77
2022/05/24 04:21:53;;;;;;;6.38;3.50;;;23.20;52.80;;;;;;5070313;28;20029;-75
2022/05/24 04:24:19;;;;;;;6.55;4.10;;;23.20;53.50;;;;;;5070286;28;20501;-75
2022/05/24 04:26:45;;;;;;;5.70;4.13;;;23.20;53.80;;;;;;5070715;28;20025;-76
2022/05/24 04:29:12;;;;;;;6.32;4.35;;;23.10;54.10;;;;;;5049551;28;20059;-78
2022/05/24 04:31:38;;;;;;;6.63;4.72;;;23.10;55.00;;;;;;5070340;28;20391;-77
2022/05/24 04:34:04;;;;;;;7.55;5.05;;;23.00;55.10;;;;;;5052293;28;20417;-76
2022/05/24 04:36:31;;;;;;;7.82;5.15;;;23.00;55.60;;;;;;5053651;28;20090;-77
2022/05/24 04:38:57;;;;;;;8.48;4.90;;;23.20;55.00;;;;;;5052289;28;20401;-79
2022/05/24 04:44:07;;;;;;;8.38;4.68;;;22.90;55.90;;;;;;5071636;28;20505;-81
2022/05/24 04:49:20;;;;;;;6.75;4.70;;;22.90;56.10;;;;;;5063982;28;20169;-79
2022/05/24 04:51:46;;;;;;;6.93;4.53;;;22.80;56.70;;;;;;5075385;28;20032;-79
2022/05/24 04:54:12;;;;;;;6.38;4.65;;;22.40;56.60;;;;;;5054510;28;20028;-79
2022/05/24 04:56:37;;;;;;;6.63;4.55;;;22.30;56.70;;;;;;5055400;28;20021;-77
2022/05/24 04:59:03;;;;;;;6.22;4.78;;;22.30;56.90;;;;;;5055466;28;20039;-77
2022/05/24 05:01:29;;;;;;;5.95;4.80;;;22.40;57.00;;;;;;5055806;28;20058;-78
2022/05/24 05:03:54;;;;;;;6.32;5.03;;;22.40;57.20;;;;;;5073202;28;20020;-79
2022/05/24 05:06:20;;;;;;;7.03;4.90;;;22.40;57.60;;;;;;5057113;28;20016;-78
2022/05/24 05:08:46;;;;;;;7.90;5.43;;;22.40;58.10;;;;;;5073098;28;20024;-80
2022/05/24 05:11:12;;;;;;;8.55;5.30;;;22.20;58.40;;;;;;5057102;28;20028;-79
2022/05/24 05:13:37;;;;;;;7.50;5.45;;;22.10;57.90;;;;;;5075163;28;20040;-83
2022/05/24 05:16:03;;;;;;;8.00;5.25;;;22.20;58.50;;;;;;5058595;28;20021;-87
2022/05/24 05:18:29;;;;;;;6.43;5.47;;;22.10;58.60;;;;;;5057569;28;20541;-81
2022/05/24 05:20:55;;;;;;;9.18;5.88;;;22.00;58.80;;;;;;5058057;28;20518;-85
2022/05/24 05:23:20;;;;;;;7.00;5.43;;;22.00;59.20;;;;;;5058088;28;20021;-91
2022/05/24 05:26:16;;;;;;;6.97;5.68;;;21.90;59.00;;;;;;5057941;28;20046;-82
2022/05/24 05:28:50;;;;;;;7.07;5.70;;;22.00;59.10;;;;;;5050239;28;20040;-84
2022/05/24 05:31:26;;;;;;;7.30;5.88;;;22.10;59.10;;;;;;5074189;28;20021;-85
2022/05/24 05:33:54;;;;;;;6.45;5.30;;;22.10;58.80;;;;;;5056123;28;20097;-83
2022/05/24 05:36:20;;;;;;;6.57;5.53;;;21.80;59.40;;;;;;5074204;28;20027;-79
2022/05/24 05:38:47;;;;;;;6.90;5.50;;;21.60;60.00;;;;;;5056138;28;20045;-81
2022/05/24 05:41:15;;;;;;;6.70;5.50;;;21.70;59.80;;;;;;5056429;28;20017;-80
2022/05/24 05:43:41;;;;;;;9.90;6.32;;;21.70;60.00;;;;;;5056487;28;20032;-83
2022/05/24 05:46:07;;;;;;;9.95;6.25;;;21.70;60.30;;;;;;5056219;28;20028;-91
2022/05/24 05:48:34;;;;;;;8.40;6.85;;;21.80;59.90;;;;;;5056015;28;20020;-86
2022/05/24 05:51:04;;;;;;;8.27;6.10;;;21.70;60.50;;;;;;5075283;28;20021;-90
2022/05/24 05:53:30;;;;;;;8.80;6.53;;;21.80;60.50;;;;;;5056996;28;20483;-84
2022/05/24 05:55:56;;;;;;;9.82;7.22;;;21.80;60.40;;;;;;5073120;28;21183;-82
2022/05/24 05:58:22;;;;;;;9.60;6.95;;;21.90;60.50;;;;;;5073596;28;20040;-85
2022/05/24 06:00:48;;;;;;;12.25;6.82;;;22.00;60.20;;;;;;5073713;28;20086;-87
2022/05/24 06:03:15;;;;;;;8.13;6.28;;;22.00;60.00;;;;;;5058410;28;20032;-89
2022/05/24 06:05:45;;;;;;;9.02;6.88;;;21.90;60.00;;;;;;5056621;28;20356;-84
2022/05/24 06:08:11;;;;;;;9.20;7.25;;;21.90;60.20;;;;;;5057079;28;20477;-86
2022/05/24 06:10:40;;;;;;;8.85;7.03;;;21.90;60.20;;;;;;5051936;28;20021;-85
2022/05/24 06:13:06;;;;;;;8.15;6.85;;;21.90;60.40;;;;;;5088837;28;20017;-82
2022/05/24 06:15:33;;;;;;;13.02;9.27;;;22.00;60.50;;;;;;5056730;28;20098;-79
2022/05/24 06:18:00;;;;;;;10.20;7.57;;;22.00;60.60;;;;;;5056780;28;20111;-83
2022/05/24 06:20:31;;;;;;;8.40;7.28;;;22.10;60.70;;;;;;5056861;28;20035;-79
2022/05/24 06:22:57;;;;;;;7.65;6.22;;;22.10;60.20;;;;;;5056966;28;20031;-83
2022/05/24 06:25:26;;;;;;;8.40;6.63;;;22.00;61.00;;;;;;5075327;28;20020;-84
2022/05/24 06:27:53;;;;;;;9.35;7.30;;;21.90;60.80;;;;;;5056915;28;20028;-80
2022/05/24 06:30:20;;;;;;;9.38;7.13;;;21.80;60.90;;;;;;5056115;28;20036;-89
2022/05/24 06:32:47;;;;;;;8.50;7.60;;;21.60;61.00;;;;;;5055804;28;20025;-84
2022/05/24 06:35:13;;;;;;;8.57;6.55;;;21.70;60.90;;;;;;5074240;28;20098;-85
2022/05/24 06:37:40;;;;;;;8.32;6.70;;;21.60;61.20;;;;;;5056366;28;20352;-81
2022/05/24 06:40:12;;;;;;;11.38;8.25;;;21.50;61.90;;;;;;5056169;28;20028;-83
2022/05/24 06:42:38;;;;;;;8.20;6.72;;;21.50;62.20;;;;;;5056324;28;20488;-81
2022/05/24 06:45:08;;;;;;;8.23;6.85;;;21.50;62.00;;;;;;5056047;28;20032;-89
2022/05/24 06:47:34;;;;;;;;;;;21.40;62.10;;;;;;5055793;28;20490;-82
2022/05/24 06:50:03;;;;;;;8.43;6.80;;;21.20;63.30;;;;;;5074206;28;19905;-90
2022/05/24 06:52:28;;;;;;;9.48;7.88;;;21.10;63.20;;;;;;5055574;28;20032;-82
2022/05/24 06:54:54;;;;;;;8.05;7.13;;;21.30;63.20;;;;;;5056042;28;20031;-83
2022/05/24 06:57:20;;;;;;;8.68;6.70;;;21.50;62.90;;;;;;5055440;28;20029;-78
2022/05/24 07:02:31;;;;;;;10.75;7.85;;;21.10;64.70;;;;;;5073544;28;20379;-81
2022/05/24 07:05:12;;;;;;;9.70;7.43;;;21.30;64.00;;;;;;5056598;28;20052;-83
2022/05/24 07:07:39;;;;;;;10.93;7.55;;;21.50;62.80;;;;;;5055315;28;20021;-78
2022/05/24 07:10:07;;;;;;;11.20;8.35;;;20.90;64.50;;;;;;5071299;28;20027;-90
2022/05/24 07:12:33;;;;;;;9.40;7.07;;;20.80;65.50;;;;;;5055306;28;20497;-88
2022/05/24 07:14:59;;;;;;;8.90;7.05;;;20.60;65.30;;;;;;5071942;28;20029;-80
2022/05/24 07:17:26;;;;;;;9.90;7.90;;;20.70;65.70;;;;;;5071287;28;20033;-89
2022/05/24 07:19:52;;;;;;;8.55;7.53;;;20.90;65.70;;;;;;5055464;28;20093;-91
2022/05/24 07:22:19;;;;;;;9.60;7.40;;;21.20;64.40;;;;;;5055790;28;20043;-83
2022/05/24 07:24:48;;;;;;;9.70;8.30;;;21.40;63.70;;;;;;5056177;28;20119;-86
2022/05/24 07:27:15;;;;;;;11.43;7.97;;;21.60;63.20;;;;;;5069316;28;20024;-84
2022/05/24 07:29:41;;;;;;;8.27;7.00;;;21.80;62.70;;;;;;5056047;28;20032;-81
2022/05/24 07:32:08;;;;;;;10.85;8.40;;;21.90;62.20;;;;;;5057576;28;20024;-84
2022/05/24 07:34:35;;;;;;;9.10;7.90;;;22.00;62.20;;;;;;5055628;28;20116;-85
2022/05/24 07:37:02;;;;;;;8.32;7.03;;;22.20;62.20;;;;;;5057001;28;20027;-89
2022/05/24 07:39:29;;;;;;;10.02;7.63;;;22.20;61.80;;;;;;5052364;28;20056;-88
2022/05/24 07:47:43;;;;;;;10.35;7.55;;;21.90;63.10;;;;;;5054968;28;20021;-91
2022/05/24 07:50:18;;;;;;;9.68;7.05;;;22.10;62.50;;;;;;5053601;28;20025;-88
2022/05/24 07:52:43;;;;;;;8.48;6.43;;;22.20;62.70;;;;;;5053002;28;20082;-84
2022/05/24 07:55:12;;;;;;;10.40;7.60;;;22.00;62.80;;;;;;5054642;28;20029;-85
2022/05/24 07:57:39;;;;;;;8.77;7.18;;;22.00;62.80;;;;;;5053969;28;20478;-82
2022/05/24 08:00:06;;;;;;;11.02;7.05;;;22.20;62.30;;;;;;5054281;28;20086;-93
2022/05/24 08:02:32;;;;;;;10.75;7.93;;;22.20;62.30;;;;;;5054824;28;20048;-89
2022/05/24 08:04:58;;;;;;;7.78;6.47;;;22.40;62.20;;;;;;5056079;28;20357;-82
2022/05/24 08:07:24;;;;;;;8.77;6.38;;;21.90;63.00;;;;;;5052525;28;20032;-82
2022/05/24 08:09:50;;;;;;;8.38;6.82;;;20.90;65.70;;;;;;5052506;28;20028;-83
2022/05/24 08:12:15;;;;;;;10.02;6.63;;;20.00;68.40;;;;;;5051801;28;20021;-83
2022/05/24 08:14:41;;;;;;;9.07;7.30;;;19.70;69.40;;;;;;5053199;28;20376;-84
2022/05/24 08:17:07;;;;;;;8.80;6.38;;;20.00;70.20;;;;;;5052187;28;20052;-93
2022/05/24 08:19:32;;;;;;;11.10;7.60;;;20.70;67.30;;;;;;5052376;28;20041;-84
2022/05/24 08:21:58;;;;;;;8.88;6.80;;;21.30;65.80;;;;;;5054999;28;20021;-90
2022/05/24 08:24:25;;;;;;;8.60;6.30;;;21.30;65.60;;;;;;5055860;28;20036;-93
2022/05/24 08:26:53;;;;;;;7.82;6.65;;;20.40;67.60;;;;;;5054960;28;20024;-84
2022/05/24 08:29:19;;;;;;;9.00;6.80;;;19.90;69.60;;;;;;5055708;28;20033;-82
2022/05/24 08:31:44;;;;;;;7.90;6.60;;;19.60;70.30;;;;;;5055333;28;20017;-78
2022/05/24 08:34:10;;;;;;;8.63;6.45;;;19.00;71.60;;;;;;5055216;28;20072;-89
2022/05/24 08:36:37;;;;;;;7.30;6.10;;;18.90;73.70;;;;;;5055742;28;20029;-86
2022/05/24 08:39:03;;;;;;;7.70;6.18;;;19.60;71.80;;;;;;5055097;28;20121;-79
2022/05/24 08:41:59;;;;;;;7.47;5.82;;;20.10;70.20;;;;;;5054976;28;20025;-83
2022/05/24 08:50:09;;;;;;;7.07;5.45;;;20.40;69.20;;;;;;5055921;28;20059;-80
2022/05/24 08:53:05;;;;;;;6.35;5.55;;;20.70;68.20;;;;;;5054734;28;20061;-78
2022/05/24 08:55:32;;;;;;;7.88;5.90;;;20.10;70.10;;;;;;5043700;28;20040;-78
2022/05/24 08:57:59;;;;;;;8.20;6.28;;;20.00;71.60;;;;;;5055358;28;20025;-76
2022/05/24 09:00:32;;;;;;;6.75;5.65;;;20.80;71.40;;;;;;5055128;28;20404;-77
2022/05/24 09:02:59;;;;;;;7.70;5.95;;;21.40;67.60;;;;;;5054599;28;20040;-78
2022/05/24 09:05:50;;;;;;;8.25;7.00;;;21.20;69.70;;;;;;5055205;28;20029;-76
2022/05/24 09:08:28;;;;;;;7.25;5.35;;;21.90;67.70;;;;;;5047050;28;20063;-77
2022/05/24 09:11:14;;;;;;;7.78;5.25;;;21.80;66.60;;;;;;5054373;28;20558;-79
2022/05/24 09:13:52;;;;;;;6.60;5.70;;;21.30;67.40;;;;;;5054733;28;20467;-81
2022/05/24 09:16:18;;;;;;;8.65;6.38;;;20.80;69.70;;;;;;5054026;28;20087;-78
2022/05/24 09:18:48;;;;;;;6.40;5.40;;;20.70;70.50;;;;;;5055312;28;20037;-78
2022/05/24 09:21:23;;;;;;;8.65;5.53;;;21.10;69.90;;;;;;5054246;28;20029;-84
2022/05/24 09:24:18;;;;;;;7.53;5.35;;;21.40;69.10;;;;;;5055504;28;20479;-88
2022/05/24 09:27:07;;;;;;;7.82;5.50;;;22.00;66.40;;;;;;4993671;28;20034;-88
2022/05/24 09:29:35;;;;;;;5.75;4.70;;;21.20;69.20;;;;;;4977965;28;20054;-90
2022/05/24 09:32:08;;;;;;;5.72;4.80;;;20.10;69.00;;;;;;4977723;28;20037;-86
2022/05/24 09:34:38;;;;;;;8.02;4.90;;;20.30;72.10;;;;;;4994232;28;20034;-91
2022/05/24 09:37:17;;;;;;;6.72;4.38;;;21.50;70.80;;;;;;4978143;28;20473;-87
2022/05/24 09:39:57;;;;;;;5.80;4.50;;;22.20;66.20;;;;;;4993386;28;20054;-87
2022/05/24 09:42:30;;;;;;;6.67;4.60;;;22.70;65.70;;;;;;4977412;28;20026;-77
2022/05/24 09:45:02;;;;;;;8.25;4.55;;;23.20;63.40;;;;;;4993268;28;20275;-79
2022/05/24 09:47:38;;;;;;;5.72;4.63;;;23.70;62.70;;;;;;4977151;28;20033;-81
2022/05/24 09:50:24;;;;;;;7.80;4.93;;;23.40;62.40;;;;;;4992993;28;20042;-77
2022/05/24 09:53:12;;;;;;;6.35;4.45;;;23.10;64.90;;;;;;4993008;28;20026;-81
2022/05/24 09:55:52;;;;;;;7.18;4.20;;;23.50;62.80;;;;;;4976930;28;20158;-80
2022/05/24 09:58:25;;;;;;;6.88;4.00;;;23.30;62.70;;;;;;4992658;28;20130;-77
2022/05/24 10:01:14;;;;;;;6.25;3.92;;;23.60;60.60;;;;;;4993170;28;20090;-77
2022/05/24 10:03:41;;;;;;;7.28;4.63;;;23.50;61.40;;;;;;5013383;28;20041;-77
2022/05/24 10:06:21;;;;;;;7.35;4.90;;;23.10;64.00;;;;;;5054281;28;20025;-81
2022/05/24 10:08:50;;;;;;;7.70;5.47;;;23.20;63.90;;;;;;5054816;28;20017;-79
2022/05/24 10:11:43;;;;;;;5.03;3.60;;;22.20;63.70;;;;;;5052950;28;20123;-78
2022/05/24 10:14:26;;;;;;;5.40;4.00;;;22.50;62.80;;;;;;5054389;28;20028;-82
2022/05/24 10:16:57;;;;;;;8.15;4.93;;;23.00;63.20;;;;;;5053398;28;20036;-81
2022/05/24 10:19:39;;;;;;;5.10;3.50;;;23.00;61.70;;;;;;5056756;28;20132;-79
2022/05/24 10:22:39;;;;;;;5.53;4.07;;;23.30;62.20;;;;;;5053274;28;20043;-79
2022/05/24 10:25:17;;;;;;;4.53;3.10;;;23.80;62.00;;;;;;5055351;28;20103;-85
2022/05/24 10:28:04;;;;;;;5.97;3.63;;;24.30;61.00;;;;;;5054844;28;20472;-82
2022/05/24 10:30:46;;;;;;;5.78;3.53;;;24.00;59.80;;;;;;5069403;28;20027;-81
2022/05/24 10:39:36;;;;;;;5.05;3.42;;;24.10;61.30;;;;;;5068909;28;20097;-78
2022/05/24 10:42:13;;;;;;;6.32;3.38;;;24.30;61.10;;;;;;5055581;28;20391;-78
2022/05/24 10:44:50;;;;;;;5.03;3.30;;;24.80;60.10;;;;;;5054682;28;20024;-77
2022/05/24 10:47:42;;;;;;;4.72;3.60;;;25.00;58.20;;;;;;5055903;28;20111;-85
2022/05/24 10:50:31;;;;;;;6.07;3.67;;;24.70;58.60;;;;;;5070302;28;20036;-78
2022/05/24 10:53:02;;;;;;;5.35;3.20;;;24.10;59.00;;;;;;5056257;28;20031;-85
2022/05/24 10:55:42;;;;;;;8.65;3.30;;;23.20;60.60;;;;;;5056576;28;20315;-80
2022/05/24 10:58:15;;;;;;;4.47;2.88;;;23.90;60.80;;;;;;5074084;28;20044;-81
2022/05/24 11:00:47;;;;;;;4.28;3.17;;;24.10;60.40;;;;;;5055637;28;20032;-81
2022/05/24 11:03:14;;;;;;;4.75;3.25;;;23.90;61.20;;;;;;5073556;28;20055;-75
2022/05/24 11:05:49;;;;;;;4.80;2.95;;;24.60;59.20;;;;;;5055075;28;20033;-78
2022/05/24 11:08:54;;;;;;;3.90;2.95;;;25.70;57.10;;;;;;5055787;28;20028;-79
2022/05/24 11:11:43;;;;;;;5.13;2.72;;;26.60;55.30;;;;;;5074173;28;20059;-87
2022/05/24 11:14:34;;;;;;;4.25;3.10;;;26.70;56.30;;;;;;5073389;28;20079;-83
2022/05/24 11:17:01;;;;;;;4.68;3.17;;;26.60;54.50;;;;;;5073397;28;20021;-84
2022/05/24 11:19:36;;;;;;;6.95;3.05;;;26.20;55.20;;;;;;5073962;28;20116;-87
2022/05/24 11:22:24;;;;;;;4.85;3.08;;;25.30;57.20;;;;;;5073336;28;20016;-81
2022/05/24 11:25:08;;;;;;;4.45;2.97;;;24.90;58.00;;;;;;5055440;28;20027;-83
2022/05/24 11:27:42;;;;;;;3.95;2.72;;;24.90;58.70;;;;;;5055233;28;20031;-85
2022/05/24 11:30:36;;;;;;;3.75;2.95;;;24.30;59.50;;;;;;5055359;28;20028;-84
2022/05/24 11:33:10;;;;;;;4.53;2.90;;;24.90;58.50;;;;;;5049334;28;20044;-80
2022/05/24 11:35:52;;;;;;;3.70;2.80;;;25.30;58.60;;;;;;5055447;28;20129;-89
2022/05/24 11:38:23;;;;;;;5.28;3.20;;;25.00;58.30;;;;;;5073087;28;20036;-86
2022/05/24 11:40:55;;;;;;;3.75;2.72;;;24.90;59.00;;;;;;5074496;28;20020;-81
2022/05/24 11:43:36;;;;;;;4.93;2.90;;;24.60;59.00;;;;;;5055785;28;20565;-85
2022/05/24 11:46:25;;;;;;;4.78;2.80;;;24.70;59.20;;;;;;5055089;28;20233;-82
2022/05/24 11:48:53;;;;;;;5.60;3.15;;;24.80;59.70;;;;;;5072705;28;20024;-83
2022/05/24 11:51:47;;;;;;;4.43;3.08;;;25.50;57.40;;;;;;5054795;28;20028;-78
2022/05/24 11:54:17;;;;;;;11.23;3.17;;;26.20;58.90;;;;;;5055217;28;20063;-84
2022/05/24 11:56:53;;;;;;;4.22;2.85;;;26.90;56.30;;;;;;5059254;28;20027;-85
2022/05/24 11:59:38;;;;;;;5.85;2.95;;;26.30;54.80;;;;;;5059130;28;20078;-85
2022/05/24 12:02:32;;;;;;;4.70;3.20;;;25.90;56.10;;;;;;5058758;28;20016;-78
2022/05/24 12:08:22;;;;;;;4.88;3.28;;;25.30;57.40;;;;;;5077335;28;20120;-84
2022/05/24 12:10:51;;;;;;;5.30;3.00;;;24.70;58.90;;;;;;5077482;28;20028;-86
2022/05/24 12:13:31;;;;;;;4.13;2.97;;;25.20;58.20;;;;;;5059092;28;20017;-85
2022/05/24 12:16:00;;;;;;;4.75;3.08;;;25.30;57.80;;;;;;5076977;28;20116;-77
2022/05/24 12:18:59;;;;;;;5.18;2.65;;;24.80;55.30;;;;;;5058190;28;20128;-81
2022/05/24 12:21:44;;;;;;;6.53;3.13;;;24.40;56.40;;;;;;4995477;28;20031;-81
2022/05/24 12:24:37;;;;;;;5.70;2.90;;;24.60;57.80;;;;;;4995248;28;20401;-84
2022/05/24 12:27:22;;;;;;;3.90;2.80;;;25.40;56.40;;;;;;4978808;28;20035;-80
2022/05/24 12:29:55;;;;;;;4.63;2.72;;;25.50;55.80;;;;;;4978901;28;20023;-87
2022/05/24 12:32:24;;;;;;;6.75;2.97;;;25.20;55.30;;;;;;4979558;28;20035;-76
2022/05/24 12:34:50;;;;;;;3.80;2.90;;;25.20;53.90;;;;;;4978722;28;20092;-79
2022/05/24 12:37:28;;;;;;;5.65;3.00;;;25.10;55.80;;;;;;4978518;28;20038;-76
2022/05/24 12:40:28;;;;;;;5.50;2.88;;;24.80;55.50;;;;;;4978817;28;20046;-80
2022/05/24 12:42:59;;;;;;;4.88;2.70;;;25.00;54.90;;;;;;4988040;28;20478;-77
2022/05/24 12:45:40;;;;;;;4.88;2.65;;;25.90;55.10;;;;;;4978650;28;20034;-82
2022/05/24 12:48:17;;;;;;;4.47;2.70;;;25.90;53.20;;;;;;4980146;28;20117;-84
2022/05/24 12:50:44;;;;;;;6.25;2.60;;;26.00;53.70;;;;;;4978678;28;20072;-81
2022/05/24 12:53:12;;;;;;;6.88;3.10;;;26.50;52.60;;;;;;4979088;28;20145;-80
2022/05/24 12:55:55;;;;;;;4.93;2.38;;;26.20;53.30;;;;;;4978561;28;20445;-82
2022/05/24 12:58:34;;;;;;;3.50;2.45;;;25.80;54.40;;;;;;5058004;28;20115;-77
2022/05/24 13:01:18;;;;;;;5.05;2.67;;;26.40;54.40;;;;;;5058052;28;20032;-81
2022/05/24 13:03:48;;;;;;;4.97;2.92;;;27.00;52.30;;;;;;5057913;28;20048;-77
2022/05/24 13:06:23;;;;;;;4.22;2.80;;;26.10;53.10;;;;;;5057017;28;20398;-82
2022/05/24 13:09:15;;;;;;;5.18;2.58;;;26.30;53.20;;;;;;5057938;28;20082;-79
2022/05/24 13:11:43;;;;;;;5.25;2.60;;;26.20;53.10;;;;;;5057957;28;20025;-81
2022/05/24 13:14:37;;;;;;;4.95;2.80;;;26.30;53.70;;;;;;5057680;28;20078;-81
2022/05/24 13:17:08;;;;;;;3.97;2.63;;;26.90;52.80;;;;;;5057560;28;20090;-86
2022/05/24 13:19:55;;;;;;;4.10;2.50;;;26.70;52.20;;;;;;5057335;28;20067;-88
2022/05/24 13:22:24;;;;;;;5.85;2.60;;;25.80;53.90;;;;;;5076620;28;20032;-83
2022/05/24 13:25:01;;;;;;;5.35;2.50;;;25.70;53.40;;;;;;5057765;28;20463;-80
2022/05/24 13:27:55;;;;;;;4.05;2.70;;;26.30;53.50;;;;;;5057811;28;20020;-83
2022/05/24 13:33:35;;;;;;;4.32;2.80;;;27.20;51.00;;;;;;5075453;28;20036;-86
2022/05/24 13:36:15;;;;;;;4.22;2.67;;;26.90;53.20;;;;;;5074682;28;20112;-83
2022/05/24 13:38:42;;;;;;;3.97;2.60;;;26.60;51.80;;;;;;5057437;28;20049;-78
2022/05/24 13:41:09;;;;;;;3.60;2.65;;;26.50;52.70;;;;;;5074838;28;20028;-79
2022/05/24 13:43:39;;;;;;;4.72;2.38;;;26.20;53.00;;;;;;5057550;28;20536;-79
2022/05/24 13:46:15;;;;;;;5.10;2.70;;;26.30;53.10;;;;;;5075310;28;20467;-82
2022/05/24 13:48:57;;;;;;;4.35;2.70;;;26.10;52.10;;;;;;5075455;28;20060;-79
2022/05/24 13:51:34;;;;;;;3.50;2.30;;;26.40;52.50;;;;;;5075581;28;20029;-79
2022/05/24 13:54:01;;;;;;;5.50;2.83;;;26.60;51.40;;;;;;5056975;28;20119;-80
2022/05/24 13:56:37;;;;;;;4.25;2.67;;;26.70;52.40;;;;;;5074439;28;20029;-87
2022/05/24 13:59:20;;;;;;;5.85;2.50;;;26.40;52.40;;;;;;5074779;28;20032;-85
2022/05/24 14:01:50;;;;;;;5.88;2.80;;;26.10;52.90;;;;;;5057657;28;20025;-86
2022/05/24 14:04:21;;;;;;;4.80;2.40;;;26.00;52.30;;;;;;5058821;28;20033;-79